Wetterdaten: Woche 24.10.16 - 30.10.16 (KW43)
Datum Zeit Temp. A. Feuchte A. Luftdruck Regen Wind Richtung Sonnenschein ET UV Solar Taupunkt Windchill Windben Empfang
24.10.2016 00:00 5,3 C 97 % 1015,8 hPa 0,0 l/m 4,9 km/h (1 Bft) O-NO 0,00 h 0,000 mm 0,0 UV-I 0 W/m 4,9 C 5,3 C 7,9 km/h (2 Bft) 99,26 %
24.10.2016 01:00 5,3 C 98 % 1015,9 hPa 0,0 l/m 6,5 km/h (2 Bft) O-NO 0,00 h 0,000 mm 0,0 UV-I 0 W/m 5,0 C 4,8 C 10,1 km/h (2 Bft) 98,04 %
24.10.2016 02:00 5,3 C 98 % 1016,0 hPa 0,0 l/m 5,9 km/h (2 Bft) O-NO 0,00 h 0,000 mm 0,0 UV-I 0 W/m 5,0 C 4,9 C 9,5 km/h (2 Bft) 99,40 %
24.10.2016 03:00 5,4 C 98 % 1016,1 hPa 0,0 l/m 6,3 km/h (2 Bft) O-NO 0,00 h 0,000 mm 0,0 UV-I 0 W/m 5,1 C 4,6 C 10,2 km/h (2 Bft) 98,06 %
24.10.2016 04:00 5,5 C 98 % 1016,2 hPa 0,0 l/m 4,5 km/h (1 Bft) O-NO 0,00 h 0,000 mm 0,0 UV-I 0 W/m 5,2 C 5,1 C 7,7 km/h (2 Bft) 99,40 %
24.10.2016 05:00 5,8 C 98 % 1016,6 hPa 0,0 l/m 1,9 km/h (1 Bft) O-NO 0,00 h 0,000 mm 0,0 UV-I 0 W/m 5,5 C 5,8 C 3,5 km/h (1 Bft) 97,98 %
24.10.2016 06:00 5,9 C 99 % 1016,9 hPa 0,0 l/m 3,7 km/h (1 Bft) O-SO 0,00 h 0,000 mm 0,0 UV-I 0 W/m 5,7 C 5,7 C 6,8 km/h (2 Bft) 99,36 %
24.10.2016 07:00 6,0 C 99 % 1017,1 hPa 0,0 l/m 6,8 km/h (2 Bft) O-NO 0,00 h 0,000 mm 0,0 UV-I 6 W/m 5,8 C 5,4 C 10,4 km/h (2 Bft) 97,97 %
24.10.2016 08:00 6,0 C 99 % 1017,3 hPa 0,0 l/m 7,1 km/h (2 Bft) O-NO 0,00 h 0,000 mm 0,0 UV-I 23 W/m 5,9 C 5,2 C 11,0 km/h (2 Bft) 99,85 %
24.10.2016 09:00 6,2 C 99 % 1017,5 hPa 0,0 l/m 6,5 km/h (2 Bft) O-NO 0,00 h 0,000 mm 0,0 UV-I 59 W/m 6,0 C 5,6 C 9,9 km/h (2 Bft) 98,02 %
24.10.2016 10:00 6,3 C 99 % 1017,6 hPa 0,0 l/m 7,1 km/h (2 Bft) O-NO 0,00 h 0,025 mm 0,3 UV-I 85 W/m 6,2 C 5,4 C 10,7 km/h (2 Bft) 99,12 %
24.10.2016 11:00 6,7 C 99 % 1017,4 hPa 0,0 l/m 7,6 km/h (2 Bft) NO 0,00 h 0,026 mm 0,5 UV-I 109 W/m 6,5 C 5,4 C 12,0 km/h (2 Bft) 98,21 %
24.10.2016 12:00 7,5 C 98 % 1017,1 hPa 0,0 l/m 6,0 km/h (2 Bft) NO 0,00 h 0,051 mm 0,8 UV-I 182 W/m 7,2 C 7,2 C 9,3 km/h (2 Bft) 99,32 %
24.10.2016 13:00 8,8 C 93 % 1016,9 hPa 0,0 l/m 3,1 km/h (1 Bft) NO 0,77 h 0,076 mm 1,2 UV-I 337 W/m 7,8 C 8,8 C 6,1 km/h (2 Bft) 98,45 %
24.10.2016 14:00 9,8 C 90 % 1016,7 hPa 0,0 l/m 1,3 km/h (1 Bft) NO 0,73 h 0,152 mm 1,1 UV-I 310 W/m 8,3 C 9,8 C 3,2 km/h (1 Bft) 99,33 %
24.10.2016 15:00 10,2 C 90 % 1016,6 hPa 0,0 l/m 2,3 km/h (1 Bft) S-SW 0,90 h 0,127 mm 0,7 UV-I 271 W/m 8,6 C 10,2 C 4,7 km/h (1 Bft) 98,22 %
24.10.2016 16:00 10,2 C 90 % 1016,3 hPa 0,0 l/m 5,8 km/h (2 Bft) O-NO 0,20 h 0,127 mm 0,0 UV-I 108 W/m 8,7 C 9,8 C 9,5 km/h (2 Bft) 99,27 %
24.10.2016 17:00 9,7 C 92 % 1016,2 hPa 0,0 l/m 7,1 km/h (2 Bft) O-NO 0,03 h 0,051 mm 0,0 UV-I 26 W/m 8,5 C 8,2 C 10,7 km/h (2 Bft) 98,56 %
24.10.2016 18:00 8,6 C 94 % 1016,3 hPa 0,0 l/m 13,0 km/h (3 Bft) O-NO 0,00 h 0,025 mm 0,0 UV-I 4 W/m 7,7 C 4,5 C 18,7 km/h (3 Bft) 99,25 %
24.10.2016 19:00 8,0 C 96 % 1016,5 hPa 0,0 l/m 11,7 km/h (2 Bft) O-NO 0,00 h 0,000 mm 0,0 UV-I 0 W/m 7,4 C 4,5 C 17,3 km/h (3 Bft) 98,24 %
24.10.2016 20:00 7,9 C 97 % 1016,5 hPa 0,0 l/m 10,8 km/h (2 Bft) O-NO 0,00 h 0,000 mm 0,0 UV-I 0 W/m 7,4 C 4,9 C 16,3 km/h (3 Bft) 98,82 %
24.10.2016 21:00 7,8 C 97 % 1016,4 hPa 0,0 l/m 9,8 km/h (2 Bft) O-NO 0,00 h 0,000 mm 0,0 UV-I 0 W/m 7,4 C 5,4 C 14,9 km/h (3 Bft) 98,31 %
24.10.2016 22:00 7,8 C 98 % 1016,5 hPa 0,0 l/m 6,5 km/h (2 Bft) O-NO 0,00 h 0,000 mm 0,0 UV-I 0 W/m 7,5 C 7,3 C 10,2 km/h (2 Bft) 99,10 %
24.10.2016 23:00 7,7 C 98 % 1016,5 hPa 0,0 l/m 4,4 km/h (1 Bft) O-NO 0,00 h 0,000 mm 0,0 UV-I 0 W/m 7,4 C 7,7 C 6,7 km/h (2 Bft) 98,47 %
25.10.2016 00:00 7,6 C 98 % 1016,4 hPa 0,0 l/m 3,2 km/h (1 Bft) O-NO 0,00 h 0,000 mm 0,0 UV-I 0 W/m 7,3 C 7,6 C 5,4 km/h (1 Bft) 95,96 %
25.10.2016 01:00 7,4 C 98 % 1016,2 hPa 0,0 l/m 5,1 km/h (1 Bft) O-NO 0,00 h 0,000 mm 0,0 UV-I 0 W/m 7,2 C 7,4 C 7,7 km/h (2 Bft) 98,60 %
25.10.2016 02:00 7,4 C 99 % 1016,4 hPa 0,0 l/m 1,2 km/h (1 Bft) O-NO 0,00 h 0,000 mm 0,0 UV-I 0 W/m 7,1 C 7,4 C 3,2 km/h (1 Bft) 98,78 %
25.10.2016 03:00 7,4 C 99 % 1016,6 hPa 0,0 l/m 1,5 km/h (1 Bft) SO 0,00 h 0,000 mm 0,0 UV-I 0 W/m 7,2 C 7,4 C 3,2 km/h (1 Bft) 98,37 %
25.10.2016 04:00 7,1 C 99 % 1016,6 hPa 0,0 l/m 2,8 km/h (1 Bft) SO 0,00 h 0,000 mm 0,0 UV-I 0 W/m 6,9 C 7,1 C 5,5 km/h (1 Bft) 98,96 %
25.10.2016 05:00 6,7 C 99 % 1017,4 hPa 0,0 l/m 3,2 km/h (1 Bft) S-SW 0,00 h 0,000 mm 0,0 UV-I 0 W/m 6,6 C 6,7 C 5,5 km/h (1 Bft) 98,75 %
25.10.2016 06:00 6,8 C 99 % 1019,2 hPa 0,0 l/m 5,8 km/h (1 Bft) W-SW 0,00 h 0,000 mm 0,0 UV-I 0 W/m 6,6 C 6,6 C 9,4 km/h (2 Bft) 98,98 %
25.10.2016 07:00 7,0 C 99 % 1020,2 hPa 0,0 l/m 4,8 km/h (1 Bft) SW 0,00 h 0,000 mm 0,0 UV-I 9 W/m 6,8 C 6,6 C 8,1 km/h (2 Bft) 98,67 %
25.10.2016 08:00 7,4 C 99 % 1021,1 hPa 0,0 l/m 1,3 km/h (1 Bft) S 0,00 h 0,000 mm 0,0 UV-I 24 W/m 7,3 C 7,4 C 2,9 km/h (1 Bft) 98,59 %
25.10.2016 09:00 8,3 C 99 % 1022,2 hPa 0,2 l/m 1,6 km/h (1 Bft) W-SW 0,00 h 0,000 mm 0,0 UV-I 30 W/m 8,1 C 8,3 C 3,3 km/h (1 Bft) 98,66 %
25.10.2016 10:00 9,4 C 99 % 1022,7 hPa 0,6 l/m 3,0 km/h (1 Bft) SO 0,00 h 0,025 mm 0,4 UV-I 57 W/m 9,3 C 9,4 C 5,6 km/h (1 Bft) 98,23 %
25.10.2016 11:00 11,2 C 98 % 1022,0 hPa 0,0 l/m 4,2 km/h (1 Bft) N-NO 0,13 h 0,026 mm 0,9 UV-I 199 W/m 10,9 C 10,8 C 7,9 km/h (2 Bft) 97,89 %
25.10.2016 12:00 11,1 C 97 % 1022,0 hPa 0,0 l/m 3,5 km/h (1 Bft) N-NO 0,13 h 0,101 mm 1,0 UV-I 215 W/m 10,6 C 11,1 C 6,4 km/h (2 Bft) 97,78 %
25.10.2016 13:00 12,1 C 96 % 1021,5 hPa 0,0 l/m 2,4 km/h (1 Bft) O 0,00 h 0,102 mm 0,8 UV-I 189 W/m 11,5 C 12,1 C 5,1 km/h (1 Bft) 98,80 %
25.10.2016 14:00 13,4 C 94 % 1020,9 hPa 0,0 l/m 1,1 km/h (1 Bft) NO 0,00 h 0,102 mm 0,7 UV-I 207 W/m 12,5 C 13,4 C 2,6 km/h (1 Bft) 98,89 %
25.10.2016 15:00 14,1 C 93 % 1021,0 hPa 0,0 l/m 1,3 km/h (1 Bft) NO 0,35 h 0,101 mm 0,6 UV-I 177 W/m 13,0 C 14,1 C 2,5 km/h (1 Bft) 98,37 %
25.10.2016 16:00 14,5 C 94 % 1021,3 hPa 0,0 l/m 0,8 km/h (0 Bft) NO 0,00 h 0,102 mm 0,0 UV-I 64 W/m 13,4 C 14,5 C 1,6 km/h (1 Bft) 98,00 %
25.10.2016 17:00 13,8 C 96 % 1021,3 hPa 0,2 l/m 0,3 km/h (0 Bft) NO 0,00 h 0,025 mm 0,0 UV-I 14 W/m 13,2 C 13,8 C 1,8 km/h (1 Bft) 99,34 %
25.10.2016 18:00 13,2 C 97 % 1021,6 hPa 0,4 l/m 0,4 km/h (0 Bft) O 0,00 h 0,000 mm 0,0 UV-I 0 W/m 12,8 C 13,2 C 0,9 km/h (0 Bft) 98,31 %
25.10.2016 19:00 13,0 C 98 % 1022,1 hPa 1,6 l/m 1,8 km/h (1 Bft) S 0,00 h 0,000 mm 0,0 UV-I 0 W/m 12,7 C 13,0 C 3,0 km/h (1 Bft) 99,77 %
25.10.2016 20:00 13,0 C 98 % 1022,3 hPa 1,0 l/m 1,6 km/h (1 Bft) S 0,00 h 0,000 mm 0,0 UV-I 0 W/m 12,6 C 13,0 C 2,8 km/h (1 Bft) 98,11 %
25.10.2016 21:00 12,7 C 98 % 1022,5 hPa 0,2 l/m 4,2 km/h (1 Bft) SW 0,00 h 0,000 mm 0,0 UV-I 0 W/m 12,4 C 12,7 C 6,1 km/h (2 Bft) 99,52 %
25.10.2016 22:00 12,5 C 98 % 1022,6 hPa 0,0 l/m 4,0 km/h (1 Bft) SW 0,00 h 0,000 mm 0,0 UV-I 0 W/m 12,2 C 12,5 C 5,7 km/h (1 Bft) 97,99 %
25.10.2016 23:00 12,3 C 98 % 1022,5 hPa 0,0 l/m 4,6 km/h (1 Bft) SW 0,00 h 0,000 mm 0,0 UV-I 0 W/m 12,1 C 12,3 C 6,6 km/h (2 Bft) 99,60 %
26.10.2016 00:00 12,3 C 98 % 1022,4 hPa 0,0 l/m 4,3 km/h (1 Bft) W-SW 0,00 h 0,000 mm 0,0 UV-I 0 W/m 12,1 C 12,3 C 5,8 km/h (2 Bft) 95,35 %
26.10.2016 01:00 12,2 C 98 % 1022,6 hPa 0,2 l/m 4,0 km/h (1 Bft) W-SW 0,00 h 0,000 mm 0,0 UV-I 0 W/m 12,0 C 12,2 C 5,7 km/h (1 Bft) 98,98 %
26.10.2016 02:00 11,9 C 98 % 1022,8 hPa 0,0 l/m 4,4 km/h (1 Bft) W-SW 0,00 h 0,000 mm 0,0 UV-I 0 W/m 11,6 C 11,9 C 6,6 km/h (2 Bft) 97,87 %
26.10.2016 03:00 11,6 C 98 % 1023,1 hPa 0,0 l/m 4,9 km/h (1 Bft) W-SW 0,00 h 0,000 mm 0,0 UV-I 0 W/m 11,3 C 11,5 C 7,9 km/h (2 Bft) 99,52 %
26.10.2016 04:00 11,0 C 98 % 1023,6 hPa 0,0 l/m 4,3 km/h (1 Bft) W 0,00 h 0,000 mm 0,0 UV-I 0 W/m 10,7 C 11,0 C 6,2 km/h (2 Bft) 97,75 %
26.10.2016 05:00 10,8 C 98 % 1023,9 hPa 0,0 l/m 5,5 km/h (1 Bft) W-SW 0,00 h 0,000 mm 0,0 UV-I 0 W/m 10,5 C 10,7 C 8,1 km/h (2 Bft) 99,47 %
26.10.2016 06:00 10,4 C 97 % 1024,2 hPa 0,0 l/m 4,3 km/h (1 Bft) W 0,00 h 0,000 mm 0,0 UV-I 0 W/m 10,0 C 10,4 C 6,2 km/h (2 Bft) 98,28 %
26.10.2016 07:00 10,3 C 97 % 1024,7 hPa 0,0 l/m 2,0 km/h (1 Bft) W-SW 0,00 h 0,000 mm 0,0 UV-I 5 W/m 9,9 C 10,3 C 4,0 km/h (1 Bft) 99,33 %
26.10.2016 08:00 10,2 C 98 % 1025,5 hPa 0,0 l/m 1,5 km/h (1 Bft) W 0,00 h 0,000 mm 0,0 UV-I 19 W/m 9,9 C 10,2 C 2,9 km/h (1 Bft) 98,21 %
26.10.2016 09:00 10,5 C 97 % 1025,8 hPa 0,0 l/m 0,9 km/h (0 Bft) W 0,00 h 0,000 mm 0,0 UV-I 70 W/m 10,1 C 10,5 C 2,1 km/h (1 Bft) 99,59 %
26.10.2016 10:00 11,0 C 96 % 1025,6 hPa 0,0 l/m 0,4 km/h (0 Bft) W 0,00 h 0,025 mm 0,4 UV-I 95 W/m 10,3 C 11,0 C 0,9 km/h (0 Bft) 98,13 %
26.10.2016 11:00 11,1 C 96 % 1025,7 hPa 0,0 l/m 0,6 km/h (0 Bft) N-NW 0,00 h 0,051 mm 0,0 UV-I 73 W/m 10,4 C 11,1 C 1,5 km/h (1 Bft) 98,67 %
26.10.2016 12:00 11,5 C 94 % 1025,7 hPa 0,0 l/m 0,8 km/h (0 Bft) W-NW 0,00 h 0,026 mm 0,4 UV-I 111 W/m 10,6 C 11,5 C 1,6 km/h (1 Bft) 98,03 %
26.10.2016 13:00 12,0 C 93 % 1025,6 hPa 0,0 l/m 0,8 km/h (0 Bft) W-NW 0,10 h 0,050 mm 0,6 UV-I 191 W/m 10,9 C 12,0 C 1,9 km/h (1 Bft) 98,85 %
26.10.2016 14:00 12,5 C 90 % 1025,1 hPa 0,0 l/m 1,5 km/h (1 Bft) NW 0,42 h 0,102 mm 0,8 UV-I 222 W/m 10,8 C 12,5 C 3,3 km/h (1 Bft) 98,89 %
26.10.2016 15:00 12,7 C 85 % 1024,9 hPa 0,0 l/m 2,9 km/h (1 Bft) W-SW 0,93 h 0,102 mm 0,6 UV-I 290 W/m 10,3 C 12,7 C 5,0 km/h (1 Bft) 98,76 %
26.10.2016 16:00 12,3 C 88 % 1025,3 hPa 0,0 l/m 1,9 km/h (1 Bft) W 0,03 h 0,152 mm 0,0 UV-I 78 W/m 10,3 C 12,3 C 3,3 km/h (1 Bft) 98,61 %
26.10.2016 17:00 11,0 C 92 % 1025,5 hPa 0,0 l/m 1,5 km/h (1 Bft) W-SW 0,07 h 0,051 mm 0,0 UV-I 18 W/m 9,7 C 11,0 C 2,6 km/h (1 Bft) 98,57 %
26.10.2016 18:00 9,6 C 94 % 1025,9 hPa 0,0 l/m 2,4 km/h (1 Bft) W-SW 0,00 h 0,000 mm 0,0 UV-I 5 W/m 8,7 C 9,6 C 3,7 km/h (1 Bft) 98,51 %
26.10.2016 19:00 8,9 C 96 % 1026,2 hPa 0,0 l/m 2,8 km/h (1 Bft) W-SW 0,00 h 0,000 mm 0,0 UV-I 0 W/m 8,3 C 8,9 C 4,5 km/h (1 Bft) 97,84 %
26.10.2016 20:00 8,5 C 97 % 1026,7 hPa 0,0 l/m 2,6 km/h (1 Bft) SW 0,00 h 0,000 mm 0,0 UV-I 0 W/m 8,0 C 8,5 C 4,5 km/h (1 Bft) 99,43 %
26.10.2016 21:00 8,4 C 97 % 1027,1 hPa 0,0 l/m 4,6 km/h (1 Bft) S-SW 0,00 h 0,000 mm 0,0 UV-I 0 W/m 7,9 C 8,3 C 7,3 km/h (2 Bft) 97,82 %
26.10.2016 22:00 8,9 C 96 % 1027,4 hPa 0,0 l/m 4,0 km/h (1 Bft) SW 0,00 h 0,000 mm 0,0 UV-I 0 W/m 8,4 C 8,9 C 6,0 km/h (2 Bft) 98,87 %
26.10.2016 23:00 9,1 C 96 % 1027,7 hPa 0,0 l/m 5,0 km/h (1 Bft) SW 0,00 h 0,000 mm 0,0 UV-I 0 W/m 8,6 C 9,1 C 6,9 km/h (2 Bft) 97,84 %
27.10.2016 00:00 9,3 C 96 % 1027,8 hPa 0,0 l/m 5,5 km/h (1 Bft) SW 0,00 h 0,000 mm 0,0 UV-I 0 W/m 8,7 C 9,2 C 7,5 km/h (2 Bft) 99,29 %
27.10.2016 01:00 9,2 C 96 % 1028,0 hPa 0,0 l/m 5,0 km/h (1 Bft) SW 0,00 h 0,000 mm 0,0 UV-I 0 W/m 8,6 C 9,0 C 7,0 km/h (2 Bft) 97,52 %
27.10.2016 02:00 9,5 C 95 % 1028,4 hPa 0,0 l/m 5,4 km/h (1 Bft) W-SW 0,00 h 0,000 mm 0,0 UV-I 0 W/m 8,8 C 9,4 C 7,6 km/h (2 Bft) 98,99 %
27.10.2016 03:00 9,4 C 95 % 1028,4 hPa 0,0 l/m 4,9 km/h (1 Bft) W 0,00 h 0,000 mm 0,0 UV-I 0 W/m 8,7 C 9,4 C 6,7 km/h (2 Bft) 97,73 %
27.10.2016 04:00 9,3 C 96 % 1028,5 hPa 0,0 l/m 6,2 km/h (2 Bft) SW 0,00 h 0,000 mm 0,0 UV-I 0 W/m 8,7 C 8,9 C 8,4 km/h (2 Bft) 98,85 %
27.10.2016 05:00 9,4 C 95 % 1028,8 hPa 0,0 l/m 7,3 km/h (2 Bft) W-SW 0,00 h 0,000 mm 0,0 UV-I 0 W/m 8,6 C 8,5 C 10,6 km/h (2 Bft) 98,05 %
27.10.2016 06:00 9,2 C 95 % 1029,2 hPa 0,0 l/m 6,8 km/h (2 Bft) W-SW 0,00 h 0,000 mm 0,0 UV-I 0 W/m 8,4 C 8,5 C 10,5 km/h (2 Bft) 98,32 %
27.10.2016 07:00 9,2 C 95 % 1029,4 hPa 0,0 l/m 7,4 km/h (2 Bft) W-SW 0,00 h 0,000 mm 0,0 UV-I 5 W/m 8,4 C 8,4 C 10,6 km/h (2 Bft) 98,99 %
27.10.2016 08:00 9,3 C 95 % 1030,4 hPa 0,0 l/m 6,3 km/h (2 Bft) W-SW 0,00 h 0,000 mm 0,0 UV-I 23 W/m 8,5 C 9,0 C 9,9 km/h (2 Bft) 99,42 %
27.10.2016 09:00 9,4 C 91 % 1031,1 hPa 0,0 l/m 9,2 km/h (2 Bft) W-SW 0,00 h 0,000 mm 0,0 UV-I 59 W/m 8,0 C 7,5 C 13,5 km/h (3 Bft) 98,82 %
27.10.2016 10:00 9,4 C 90 % 1031,7 hPa 0,0 l/m 8,8 km/h (2 Bft) W-SW 0,00 h 0,025 mm 0,0 UV-I 58 W/m 7,8 C 7,7 C 13,1 km/h (3 Bft) 98,86 %
27.10.2016 11:00 9,5 C 91 % 1032,1 hPa 0,0 l/m 9,6 km/h (2 Bft) W-SW 0,00 h 0,026 mm 0,6 UV-I 101 W/m 8,0 C 7,4 C 14,0 km/h (3 Bft) 98,53 %
27.10.2016 12:00 9,6 C 90 % 1032,3 hPa 0,0 l/m 9,5 km/h (2 Bft) W-SW 0,00 h 0,051 mm 0,4 UV-I 80 W/m 8,1 C 7,5 C 14,3 km/h (3 Bft) 99,04 %
27.10.2016 13:00 10,0 C 87 % 1032,3 hPa 0,0 l/m 8,3 km/h (2 Bft) W-SW 0,02 h 0,050 mm 0,6 UV-I 146 W/m 7,8 C 8,6 C 12,6 km/h (3 Bft) 98,59 %
27.10.2016 14:00 10,5 C 82 % 1032,1 hPa 0,0 l/m 8,7 km/h (2 Bft) W-SW 0,23 h 0,077 mm 0,8 UV-I 146 W/m 7,6 C 9,0 C 13,8 km/h (3 Bft) 98,75 %
27.10.2016 15:00 10,3 C 83 % 1032,0 hPa 0,0 l/m 6,3 km/h (2 Bft) W 0,10 h 0,076 mm 0,0 UV-I 76 W/m 7,6 C 9,9 C 11,4 km/h (2 Bft) 98,49 %
27.10.2016 16:00 10,5 C 81 % 1032,1 hPa 0,0 l/m 7,6 km/h (2 Bft) W-SW 0,77 h 0,051 mm 0,0 UV-I 137 W/m 7,4 C 9,5 C 14,1 km/h (3 Bft) 98,90 %
27.10.2016 17:00 9,8 C 83 % 1032,4 hPa 0,0 l/m 8,0 km/h (2 Bft) W-SW 0,00 h 0,076 mm 0,0 UV-I 18 W/m 7,0 C 8,6 C 13,0 km/h (3 Bft) 98,84 %
27.10.2016 18:00 9,5 C 85 % 1032,9 hPa 0,0 l/m 5,1 km/h (1 Bft) W-SW 0,00 h 0,025 mm 0,0 UV-I 0 W/m 7,0 C 9,3 C 8,5 km/h (2 Bft) 98,60 %
27.10.2016 19:00 9,2 C 86 % 1033,5 hPa 0,0 l/m 6,0 km/h (2 Bft) W 0,00 h 0,000 mm 0,0 UV-I 0 W/m 7,0 C 8,7 C 9,2 km/h (2 Bft) 98,88 %
27.10.2016 20:00 8,9 C 87 % 1033,8 hPa 0,0 l/m 6,4 km/h (2 Bft) W-SW 0,00 h 0,000 mm 0,0 UV-I 0 W/m 6,9 C 8,5 C 10,0 km/h (2 Bft) 98,47 %
27.10.2016 21:00 8,8 C 87 % 1034,1 hPa 0,0 l/m 5,5 km/h (1 Bft) W-SW 0,00 h 0,000 mm 0,0 UV-I 0 W/m 6,7 C 8,6 C 8,8 km/h (2 Bft) 99,32 %
27.10.2016 22:00 8,6 C 88 % 1034,1 hPa 0,0 l/m 5,1 km/h (1 Bft) SW 0,00 h 0,000 mm 0,0 UV-I 0 W/m 6,7 C 8,6 C 7,6 km/h (2 Bft) 98,13 %
27.10.2016 23:00 8,3 C 91 % 1033,9 hPa 0,0 l/m 1,9 km/h (1 Bft) SW 0,00 h 0,000 mm 0,0 UV-I 0 W/m 6,9 C 8,3 C 3,3 km/h (1 Bft) 99,14 %
28.10.2016 00:00 8,1 C 93 % 1033,9 hPa 0,0 l/m 0,7 km/h (0 Bft) SW 0,00 h 0,000 mm 0,0 UV-I 0 W/m 7,0 C 8,1 C 1,7 km/h (1 Bft) 94,64 %
28.10.2016 01:00 8,0 C 93 % 1033,5 hPa 0,0 l/m 0,7 km/h (0 Bft) SW 0,00 h 0,000 mm 0,0 UV-I 0 W/m 7,0 C 8,0 C 1,5 km/h (1 Bft) 99,16 %
28.10.2016 02:00 7,8 C 94 % 1033,4 hPa 0,0 l/m 0,8 km/h (0 Bft) SW 0,00 h 0,000 mm 0,0 UV-I 0 W/m 6,9 C 7,8 C 1,7 km/h (1 Bft) 98,02 %
28.10.2016 03:00 7,6 C 95 % 1033,2 hPa 0,0 l/m 0,3 km/h (0 Bft) SW 0,00 h 0,000 mm 0,0 UV-I 0 W/m 6,9 C 7,6 C 1,1 km/h (0 Bft) 99,49 %
28.10.2016 04:00 6,9 C 95 % 1032,8 hPa 0,0 l/m 1,0 km/h (0 Bft) SW 0,00 h 0,000 mm 0,0 UV-I 0 W/m 6,2 C 6,9 C 2,0 km/h (1 Bft) 97,65 %
28.10.2016 05:00 5,7 C 97 % 1033,4 hPa 0,0 l/m 1,2 km/h (1 Bft) SW 0,00 h 0,000 mm 0,0 UV-I 0 W/m 5,2 C 5,7 C 2,5 km/h (1 Bft) 99,32 %
28.10.2016 06:00 5,2 C 97 % 1033,1 hPa 0,0 l/m 1,2 km/h (1 Bft) SW 0,00 h 0,000 mm 0,0 UV-I 0 W/m 4,7 C 5,2 C 2,8 km/h (1 Bft) 98,08 %
28.10.2016 07:00 4,7 C 97 % 1032,9 hPa 0,0 l/m 1,3 km/h (1 Bft) SW 0,10 h 0,000 mm 0,0 UV-I 10 W/m 4,3 C 4,7 C 2,5 km/h (1 Bft) 99,63 %
28.10.2016 08:00 4,3 C 98 % 1033,5 hPa 0,0 l/m 0,1 km/h (0 Bft) N 0,37 h 0,000 mm 0,0 UV-I 58 W/m 4,0 C 4,3 C 0,4 km/h (0 Bft) 98,71 %
28.10.2016 09:00 5,5 C 98 % 1033,7 hPa 0,0 l/m 1,7 km/h (1 Bft) S-SW 1,00 h 0,025 mm 0,5 UV-I 198 W/m 5,2 C 5,5 C 4,1 km/h (1 Bft) 98,72 %
28.10.2016 10:00 7,9 C 92 % 1033,7 hPa 0,0 l/m 1,8 km/h (1 Bft) W-SW 0,73 h 0,077 mm 0,7 UV-I 227 W/m 6,7 C 7,9 C 3,9 km/h (1 Bft) 98,52 %
28.10.2016 11:00 8,8 C 91 % 1033,6 hPa 0,0 l/m 2,3 km/h (1 Bft) N 1,00 h 0,101 mm 1,3 UV-I 403 W/m 7,4 C 8,8 C 4,8 km/h (1 Bft) 98,94 %
28.10.2016 12:00 10,5 C 83 % 1033,1 hPa 0,0 l/m 3,4 km/h (1 Bft) W-SW 1,00 h 0,178 mm 1,5 UV-I 438 W/m 7,7 C 10,4 C 6,5 km/h (2 Bft) 98,78 %
28.10.2016 13:00 11,5 C 79 % 1032,6 hPa 0,0 l/m 2,9 km/h (1 Bft) W 1,00 h 0,203 mm 1,5 UV-I 463 W/m 7,9 C 11,5 C 6,3 km/h (2 Bft) 98,75 %
28.10.2016 14:00 12,1 C 78 % 1032,1 hPa 0,0 l/m 3,3 km/h (1 Bft) W-NW 0,97 h 0,229 mm 1,1 UV-I 359 W/m 8,4 C 12,0 C 7,0 km/h (2 Bft) 99,57 %
28.10.2016 15:00 12,4 C 77 % 1032,1 hPa 0,0 l/m 2,8 km/h (1 Bft) W-NW 1,00 h 0,178 mm 0,7 UV-I 299 W/m 8,6 C 12,4 C 6,7 km/h (2 Bft) 97,93 %
28.10.2016 16:00 11,2 C 81 % 1032,2 hPa 0,0 l/m 5,1 km/h (1 Bft) W 0,37 h 0,152 mm 0,0 UV-I 103 W/m 8,0 C 10,9 C 10,0 km/h (2 Bft) 98,94 %
28.10.2016 17:00 10,1 C 84 % 1032,0 hPa 0,0 l/m 4,6 km/h (1 Bft) W 0,63 h 0,051 mm 0,0 UV-I 34 W/m 7,6 C 9,9 C 7,9 km/h (2 Bft) 98,16 %
28.10.2016 18:00 9,0 C 90 % 1032,4 hPa 0,0 l/m 4,4 km/h (1 Bft) W 0,00 h 0,025 mm 0,0 UV-I 5 W/m 7,4 C 9,0 C 7,3 km/h (2 Bft) 99,30 %
28.10.2016 19:00 8,4 C 92 % 1032,5 hPa 0,0 l/m 5,0 km/h (1 Bft) SW 0,00 h 0,000 mm 0,0 UV-I 0 W/m 7,2 C 8,4 C 8,1 km/h (2 Bft) 98,90 %
28.10.2016 20:00 8,4 C 93 % 1032,9 hPa 0,0 l/m 6,2 km/h (2 Bft) SW 0,00 h 0,000 mm 0,0 UV-I 0 W/m 7,4 C 8,2 C 8,9 km/h (2 Bft) 98,83 %
28.10.2016 21:00 8,9 C 92 % 1033,0 hPa 0,0 l/m 6,3 km/h (2 Bft) SW 0,00 h 0,000 mm 0,0 UV-I 0 W/m 7,6 C 8,6 C 9,7 km/h (2 Bft) 99,16 %
28.10.2016 22:00 9,4 C 90 % 1033,0 hPa 0,0 l/m 10,3 km/h (2 Bft) W-SW 0,00 h 0,000 mm 0,0 UV-I 0 W/m 7,8 C 6,8 C 15,1 km/h (3 Bft) 98,15 %
28.10.2016 23:00 9,7 C 89 % 1032,9 hPa 0,0 l/m 8,4 km/h (2 Bft) SW 0,00 h 0,026 mm 0,0 UV-I 0 W/m 8,0 C 8,3 C 12,7 km/h (3 Bft) 99,34 %
29.10.2016 00:00 9,7 C 89 % 1032,6 hPa 0,0 l/m 6,3 km/h (2 Bft) W-SW 0,00 h 0,000 mm 0,0 UV-I 0 W/m 8,0 C 9,4 C 10,4 km/h (2 Bft) 98,17 %
29.10.2016 01:00 9,7 C 89 % 1032,2 hPa 0,0 l/m 7,1 km/h (2 Bft) SW 0,00 h 0,000 mm 0,0 UV-I 0 W/m 8,0 C 9,0 C 11,2 km/h (2 Bft) 99,28 %
29.10.2016 02:00 9,7 C 89 % 1032,1 hPa 0,0 l/m 8,0 km/h (2 Bft) SW 0,00 h 0,000 mm 0,0 UV-I 0 W/m 8,0 C 8,6 C 12,5 km/h (3 Bft) 97,65 %
29.10.2016 03:00 9,2 C 93 % 1032,0 hPa 0,4 l/m 4,3 km/h (1 Bft) W-SW 0,00 h 0,000 mm 0,0 UV-I 0 W/m 8,1 C 9,2 C 7,6 km/h (2 Bft) 99,79 %
29.10.2016 04:00 8,9 C 95 % 1031,9 hPa 0,6 l/m 6,1 km/h (2 Bft) W-SW 0,00 h 0,000 mm 0,0 UV-I 0 W/m 8,2 C 8,3 C 10,2 km/h (2 Bft) 97,85 %
29.10.2016 05:00 8,8 C 97 % 1031,6 hPa 0,2 l/m 8,4 km/h (2 Bft) W-SW 0,00 h 0,000 mm 0,0 UV-I 0 W/m 8,2 C 7,3 C 13,4 km/h (3 Bft) 99,29 %
29.10.2016 06:00 8,8 C 97 % 1031,2 hPa 0,4 l/m 12,4 km/h (3 Bft) W-SW 0,00 h 0,000 mm 0,0 UV-I 0 W/m 8,3 C 5,0 C 19,2 km/h (3 Bft) 97,83 %
29.10.2016 07:00 8,9 C 96 % 1030,9 hPa 0,0 l/m 11,7 km/h (2 Bft) W-SW 0,00 h 0,000 mm 0,0 UV-I 6 W/m 8,3 C 5,5 C 17,8 km/h (3 Bft) 99,35 %
29.10.2016 08:00 9,0 C 96 % 1031,3 hPa 0,0 l/m 9,9 km/h (2 Bft) W-SW 0,00 h 0,000 mm 0,0 UV-I 16 W/m 8,4 C 6,6 C 15,1 km/h (3 Bft) 98,16 %
29.10.2016 09:00 9,0 C 97 % 1031,5 hPa 0,2 l/m 7,0 km/h (2 Bft) W-SW 0,00 h 0,000 mm 0,0 UV-I 35 W/m 8,5 C 8,4 C 11,7 km/h (2 Bft) 99,37 %
29.10.2016 10:00 9,3 C 97 % 1031,4 hPa 0,2 l/m 8,5 km/h (2 Bft) W-SW 0,00 h 0,025 mm 0,4 UV-I 76 W/m 8,8 C 7,9 C 14,0 km/h (3 Bft) 97,51 %
29.10.2016 11:00 9,9 C 96 % 1031,0 hPa 0,0 l/m 9,4 km/h (2 Bft) W-SW 0,00 h 0,026 mm 0,2 UV-I 68 W/m 9,2 C 7,9 C 15,0 km/h (3 Bft) 99,23 %
29.10.2016 12:00 10,0 C 95 % 1030,8 hPa 0,0 l/m 11,1 km/h (2 Bft) W-SW 0,00 h 0,025 mm 0,6 UV-I 88 W/m 9,3 C 7,1 C 17,4 km/h (3 Bft) 97,85 %
29.10.2016 13:00 10,2 C 96 % 1030,1 hPa 0,0 l/m 11,7 km/h (2 Bft) W-SW 0,00 h 0,051 mm 0,5 UV-I 87 W/m 9,5 C 6,9 C 18,1 km/h (3 Bft) 99,37 %
29.10.2016 14:00 10,4 C 95 % 1029,5 hPa 0,0 l/m 11,2 km/h (2 Bft) W-SW 0,00 h 0,051 mm 0,2 UV-I 61 W/m 9,6 C 7,5 C 16,9 km/h (3 Bft) 98,11 %
29.10.2016 15:00 10,6 C 93 % 1029,2 hPa 0,0 l/m 11,7 km/h (2 Bft) W-SW 0,00 h 0,025 mm 0,0 UV-I 63 W/m 9,5 C 7,3 C 17,9 km/h (3 Bft) 99,61 %
29.10.2016 16:00 10,8 C 90 % 1029,1 hPa 0,0 l/m 11,9 km/h (2 Bft) W-SW 0,00 h 0,051 mm 0,0 UV-I 61 W/m 9,3 C 7,5 C 18,2 km/h (3 Bft) 97,81 %
29.10.2016 17:00 10,2 C 91 % 1028,9 hPa 0,0 l/m 10,4 km/h (2 Bft) W-SW 0,10 h 0,051 mm 0,0 UV-I 20 W/m 8,9 C 7,7 C 16,6 km/h (3 Bft) 99,19 %
29.10.2016 18:00 9,4 C 93 % 1029,3 hPa 0,0 l/m 8,6 km/h (2 Bft) SW 0,00 h 0,025 mm 0,0 UV-I 4 W/m 8,3 C 7,8 C 13,1 km/h (3 Bft) 98,18 %
29.10.2016 19:00 9,1 C 94 % 1029,7 hPa 0,0 l/m 9,4 km/h (2 Bft) SW 0,00 h 0,000 mm 0,0 UV-I 0 W/m 8,1 C 7,0 C 14,1 km/h (3 Bft) 99,01 %
29.10.2016 20:00 8,7 C 94 % 1029,8 hPa 0,0 l/m 9,7 km/h (2 Bft) SW 0,00 h 0,000 mm 0,0 UV-I 0 W/m 7,7 C 6,4 C 14,5 km/h (3 Bft) 98,81 %
29.10.2016 21:00 8,5 C 93 % 1029,9 hPa 0,0 l/m 12,7 km/h (3 Bft) SW 0,00 h 0,000 mm 0,0 UV-I 0 W/m 7,5 C 4,5 C 18,4 km/h (3 Bft) 98,53 %
29.10.2016 22:00 8,7 C 93 % 1030,1 hPa 0,0 l/m 11,4 km/h (2 Bft) W-SW 0,00 h 0,000 mm 0,0 UV-I 0 W/m 7,5 C 5,3 C 16,2 km/h (3 Bft) 99,05 %
29.10.2016 23:00 8,6 C 92 % 1029,9 hPa 0,0 l/m 7,4 km/h (2 Bft) W-SW 0,00 h 0,000 mm 0,0 UV-I 0 W/m 7,4 C 7,8 C 11,8 km/h (2 Bft) 98,25 %
30.10.2016 00:00 8,7 C 92 % 1029,8 hPa 0,0 l/m 8,2 km/h (2 Bft) W-SW 0,00 h 0,000 mm 0,0 UV-I 0 W/m 7,5 C 7,4 C 12,7 km/h (3 Bft) 99,41 %
30.10.2016 01:00 8,7 C 92 % 1029,6 hPa 0,0 l/m 7,1 km/h (2 Bft) W-SW 0,00 h 0,000 mm 0,0 UV-I 0 W/m 7,4 C 7,8 C 11,1 km/h (2 Bft) 98,43 %
30.10.2016 02:00 8,2 C 92 % 1029,2 hPa 0,0 l/m 5,7 km/h (1 Bft) W-SW 0,00 h 0,000 mm 0,0 UV-I 0 W/m 7,0 C 8,0 C 8,5 km/h (2 Bft) 99,18 %
30.10.2016 03:00 7,8 C 91 % 1029,2 hPa 0,0 l/m 5,2 km/h (1 Bft) W 0,00 h 0,000 mm 0,0 UV-I 0 W/m 6,4 C 7,6 C 9,2 km/h (2 Bft) 99,56 %
30.10.2016 04:00 7,6 C 92 % 1029,0 hPa 0,0 l/m 6,1 km/h (2 Bft) W-SW 0,00 h 0,000 mm 0,0 UV-I 0 W/m 6,4 C 7,1 C 9,7 km/h (2 Bft) 98,01 %
30.10.2016 05:00 7,4 C 92 % 1029,0 hPa 0,0 l/m 4,7 km/h (1 Bft) W-SW 0,00 h 0,000 mm 0,0 UV-I 0 W/m 6,1 C 7,4 C 8,3 km/h (2 Bft) 99,37 %
30.10.2016 06:00 7,3 C 91 % 1028,8 hPa 0,0 l/m 5,2 km/h (1 Bft) W 0,00 h 0,000 mm 0,0 UV-I 6 W/m 5,9 C 7,3 C 8,6 km/h (2 Bft) 98,17 %
30.10.2016 07:00 7,1 C 92 % 1029,3 hPa 0,0 l/m 1,5 km/h (1 Bft) W-NW 0,00 h 0,000 mm 0,0 UV-I 24 W/m 6,0 C 7,1 C 3,3 km/h (1 Bft) 99,16 %
30.10.2016 08:00 7,5 C 91 % 1029,4 hPa 0,0 l/m 5,3 km/h (1 Bft) W-SW 0,00 h 0,000 mm 0,0 UV-I 73 W/m 6,1 C 7,1 C 8,6 km/h (2 Bft) 97,96 %
30.10.2016 09:00 8,1 C 87 % 1029,3 hPa 0,0 l/m 8,3 km/h (2 Bft) W-SW 0,00 h 0,025 mm 0,0 UV-I 89 W/m 6,0 C 6,6 C 13,0 km/h (3 Bft) 98,66 %
30.10.2016 10:00 8,8 C 83 % 1029,1 hPa 0,0 l/m 9,2 km/h (2 Bft) W-SW 0,07 h 0,051 mm 0,7 UV-I 170 W/m 6,0 C 6,8 C 14,4 km/h (3 Bft) 97,94 %
30.10.2016 11:00 9,6 C 77 % 1028,7 hPa 0,0 l/m 8,9 km/h (2 Bft) W-SW 0,37 h 0,102 mm 1,0 UV-I 236 W/m 5,8 C 7,9 C 14,9 km/h (3 Bft) 99,20 %
30.10.2016 12:00 10,0 C 75 % 1028,3 hPa 0,0 l/m 11,0 km/h (2 Bft) W-SW 0,23 h 0,127 mm 1,1 UV-I 237 W/m 5,8 C 7,2 C 17,8 km/h (3 Bft) 97,94 %
30.10.2016 13:00 9,9 C 75 % 1027,8 hPa 0,0 l/m 11,7 km/h (2 Bft) W-SW 0,07 h 0,127 mm 0,8 UV-I 191 W/m 5,7 C 6,6 C 18,3 km/h (3 Bft) 99,28 %
30.10.2016 14:00 10,0 C 77 % 1027,4 hPa 0,0 l/m 11,3 km/h (2 Bft) W-SW 0,63 h 0,127 mm 0,6 UV-I 191 W/m 6,2 C 7,1 C 18,0 km/h (3 Bft) 97,68 %
30.10.2016 15:00 9,8 C 79 % 1027,6 hPa 0,0 l/m 9,6 km/h (2 Bft) W-SW 0,27 h 0,127 mm 0,0 UV-I 97 W/m 6,2 C 7,7 C 15,2 km/h (3 Bft) 99,44 %
30.10.2016 16:00 9,2 C 81 % 1027,6 hPa 0,0 l/m 8,6 km/h (2 Bft) W-SW 0,20 h 0,076 mm 0,0 UV-I 18 W/m 6,2 C 7,7 C 13,4 km/h (3 Bft) 98,05 %
30.10.2016 17:00 8,8 C 83 % 1027,9 hPa 0,0 l/m 7,6 km/h (2 Bft) W-SW 0,00 h 0,025 mm 0,0 UV-I 2 W/m 6,2 C 7,8 C 11,6 km/h (2 Bft) 99,67 %
30.10.2016 18:00 8,5 C 85 % 1028,2 hPa 0,0 l/m 5,1 km/h (1 Bft) W-SW 0,00 h 0,026 mm 0,0 UV-I 0 W/m 6,1 C 8,5 C 7,5 km/h (2 Bft) 98,17 %
30.10.2016 19:00 8,4 C 86 % 1028,5 hPa 0,0 l/m 5,4 km/h (1 Bft) W-SW 0,00 h 0,000 mm 0,0 UV-I 0 W/m 6,2 C 8,4 C 8,0 km/h (2 Bft) 99,43 %
30.10.2016 20:00 8,4 C 86 % 1029,0 hPa 0,0 l/m 6,7 km/h (2 Bft) W-SW 0,00 h 0,000 mm 0,0 UV-I 0 W/m 6,2 C 7,9 C 10,8 km/h (2 Bft) 98,01 %
30.10.2016 21:00 8,1 C 88 % 1029,3 hPa 0,0 l/m 4,8 km/h (1 Bft) W-SW 0,00 h 0,000 mm 0,0 UV-I 0 W/m 6,2 C 8,1 C 7,2 km/h (2 Bft) 99,34 %
30.10.2016 22:00 7,5 C 90 % 1029,3 hPa 0,0 l/m 3,7 km/h (1 Bft) SW 0,00 h 0,000 mm 0,0 UV-I 0 W/m 5,9 C 7,5 C 6,0 km/h (2 Bft) 97,91 %
30.10.2016 23:00 6,4 C 92 % 1029,3 hPa 0,0 l/m 1,0 km/h (0 Bft) SW 0,00 h 0,000 mm 0,0 UV-I 0 W/m 5,3 C 6,4 C 2,3 km/h (1 Bft) 99,22 %
Min-Datum _ 28.10.16 30.10.16 24.10.16 - 24.10.16 - - - - - 28.10.16 24.10.16 24.10.16 25.10.16
_ Min-Zeit 08:46 12:16 00:00 - 04:58 - - - - - 08:46 19:12 04:58 00:02
Minimum _ 4,1 C 73 % 1015,7 hPa - 0,0 km/h (0 Bft) - - - - - 3,8 C 2,1 C 0,0 km/h (0 Bft) 5,26 %
Max-Datum _ 25.10.16 24.10.16 27.10.16 25.10.16 30.10.16 - 28.10.16 28.10.16 24.10.16 24.10.16 25.10.16 25.10.16 30.10.16 24.10.16
_ Max-Zeit 16:29 06:10 22:04 19:29 13:12 - 15:30 14:00 13:06 13:08 16:33 16:09 13:12 00:00
Maximum _ 14,7 C 99 % 1034,2 hPa 1,6 l/m 19,7 km/h
W-SW (3 Bft)
- 0,07 h 0,229 mm 1,6 UV-I 549 W/m 13,6 C 14,6 C 30,6 km/h
W-SW (5 Bft)
100,00 %
Durchschnitt _ 9,2 C 93 % 1026,5 hPa #6,4 l/m 5,4 km/h (1 Bft) W-SW #16:01 h #4,648 mm 0,7 UV-I 113 W/m 8,0 C 8,4 C 8,6 km/h (2 Bft) 98,63 %